createdAt,value
2018-03-28T05:19:09.392Z,1.80
2018-03-28T05:24:12.025Z,1.70
2018-03-28T05:29:14.649Z,1.70
2018-03-28T05:34:17.289Z,1.70
2018-03-28T05:39:20.668Z,1.70
2018-03-28T05:44:23.317Z,1.70
2018-03-28T05:49:25.970Z,1.80
2018-03-28T05:54:28.650Z,1.80
2018-03-28T05:59:31.250Z,1.80
2018-03-28T06:04:33.889Z,1.80
2018-03-28T06:09:37.281Z,1.90
2018-03-28T06:14:39.945Z,1.90
2018-03-28T06:19:43.380Z,1.90
2018-03-28T06:24:46.009Z,1.90
2018-03-28T06:29:49.417Z,2.00
2018-03-28T06:34:52.028Z,2.00
2018-03-28T06:39:55.419Z,1.90
2018-03-28T06:44:58.039Z,1.90
2018-03-28T06:50:01.421Z,2.00
2018-03-28T06:55:04.061Z,1.90
2018-03-28T07:00:06.690Z,2.00
2018-03-28T07:05:10.074Z,2.10
2018-03-28T07:10:12.698Z,2.00
2018-03-28T07:15:16.101Z,2.10
2018-03-28T07:20:18.736Z,2.10
2018-03-28T07:25:21.355Z,2.10
2018-03-28T07:30:24.763Z,2.10
2018-03-28T07:35:27.390Z,2.00
2018-03-28T07:40:30.070Z,2.10
2018-03-28T07:45:32.668Z,2.00
2018-03-28T07:50:36.080Z,2.00
2018-03-28T07:55:38.708Z,2.00
2018-03-28T08:00:41.349Z,2.00
2018-03-28T08:05:44.010Z,1.90
2018-03-28T08:10:46.644Z,2.00
2018-03-28T08:15:49.286Z,1.90
2018-03-28T08:20:51.901Z,1.90
2018-03-28T08:25:55.290Z,2.00
2018-03-28T08:30:57.909Z,2.00
2018-03-28T08:36:00.550Z,2.00
2018-03-28T08:41:03.198Z,2.00
2018-03-28T08:46:05.830Z,2.00
2018-03-28T08:51:08.466Z,2.00
2018-03-28T08:56:11.081Z,2.00
2018-03-28T09:01:13.727Z,2.00
2018-03-28T09:06:17.120Z,2.00
2018-03-28T09:11:19.774Z,2.00
2018-03-28T09:16:22.398Z,2.00
2018-03-28T09:21:25.029Z,2.00
2018-03-28T09:26:27.670Z,2.00
2018-03-28T09:31:30.305Z,2.00
2018-03-28T09:36:33.689Z,2.10
2018-03-28T09:41:36.322Z,2.10
2018-03-28T09:46:38.957Z,2.10
2018-03-28T09:51:42.353Z,2.30
2018-03-28T09:56:44.996Z,2.20
2018-03-28T10:01:53.434Z,2.30
2018-03-28T10:06:56.054Z,2.30
2018-03-28T10:11:58.680Z,2.30
2018-03-28T10:17:01.318Z,2.30
2018-03-28T10:22:03.937Z,2.30
2018-03-28T10:27:07.337Z,2.40
2018-03-28T10:32:09.962Z,2.30
2018-03-28T10:37:12.595Z,2.40
2018-03-28T10:42:16.000Z,2.40
2018-03-28T10:47:18.623Z,2.40
2018-03-28T10:52:21.240Z,2.30
2018-03-28T10:57:24.629Z,2.40
2018-03-28T11:02:27.270Z,2.40
2018-03-28T11:07:29.887Z,2.50
2018-03-28T11:12:32.541Z,2.50
2018-03-28T11:17:35.161Z,2.50
2018-03-28T11:22:37.806Z,2.50
2018-03-28T11:27:40.445Z,2.60
2018-03-28T11:32:43.082Z,2.70
2018-03-28T11:37:45.742Z,2.80
2018-03-28T11:42:48.361Z,2.80
2018-03-28T11:47:50.997Z,2.80
2018-03-28T11:52:53.648Z,2.70
2018-03-28T11:57:56.280Z,2.80
2018-03-28T12:02:58.911Z,2.70
2018-03-28T12:08:02.314Z,2.70
2018-03-28T12:13:04.963Z,2.70
2018-03-28T12:18:07.585Z,2.80
2018-03-28T12:23:10.217Z,2.80
2018-03-28T12:28:13.614Z,2.70
2018-03-28T12:33:16.248Z,2.70
2018-03-28T12:38:18.865Z,2.70
2018-03-28T12:43:21.496Z,2.70
2018-03-28T12:48:24.116Z,2.60
2018-03-28T12:53:26.782Z,2.60
